createdAt,value
2018-08-08T00:00:39.950Z,5.10
2018-08-08T00:03:40.400Z,3.00
2018-08-08T00:06:08.642Z,3.23
2018-08-08T00:08:36.862Z,5.73
2018-08-08T00:11:05.068Z,2.97
2018-08-08T00:13:33.343Z,5.03
2018-08-08T00:16:01.570Z,5.30
2018-08-08T00:18:29.811Z,4.53
2018-08-08T00:20:58.032Z,3.60
2018-08-08T00:23:26.266Z,3.27
2018-08-08T00:25:54.496Z,4.53
2018-08-08T00:28:22.697Z,3.20
2018-08-08T00:30:50.920Z,7.20
2018-08-08T00:33:21.516Z,4.43
2018-08-08T00:35:49.754Z,5.37
2018-08-08T00:38:17.971Z,4.40
2018-08-08T00:40:46.224Z,3.13
2018-08-08T00:43:14.435Z,4.77
2018-08-08T00:45:42.660Z,3.23
2018-08-08T00:48:10.867Z,4.17
2018-08-08T00:50:39.084Z,6.80
2018-08-08T00:53:07.340Z,5.67
2018-08-08T00:55:35.590Z,6.37
2018-08-08T00:58:03.912Z,4.03
2018-08-08T01:00:32.163Z,3.87
2018-08-08T01:03:00.384Z,4.07
2018-08-08T01:05:28.617Z,4.63
2018-08-08T01:07:56.835Z,5.80
2018-08-08T01:10:25.051Z,6.60
2018-08-08T01:12:53.284Z,4.03
2018-08-08T01:15:21.503Z,5.23
2018-08-08T01:17:49.721Z,3.83
2018-08-08T01:20:18.009Z,4.23
2018-08-08T01:22:46.368Z,4.43
2018-08-08T01:25:15.887Z,4.30
2018-08-08T01:27:44.211Z,3.63
2018-08-08T01:30:14.377Z,3.70
2018-08-08T01:32:42.760Z,5.83
2018-08-08T01:35:11.405Z,4.13
2018-08-08T01:37:39.637Z,3.07
2018-08-08T01:40:13.016Z,3.93
2018-08-08T01:42:41.766Z,3.80
2018-08-08T01:45:11.306Z,3.43
2018-08-08T01:47:40.057Z,3.20
2018-08-08T01:50:10.198Z,18.97
2018-08-08T01:52:38.675Z,4.23
2018-08-08T01:55:08.082Z,5.53
2018-08-08T01:57:36.424Z,3.40
2018-08-08T02:00:06.539Z,3.53
2018-08-08T02:02:34.786Z,3.87
2018-08-08T02:05:03.034Z,6.37
2018-08-08T02:07:31.250Z,3.13
2018-08-08T02:09:59.504Z,3.53
2018-08-08T02:12:27.810Z,3.37
2018-08-08T02:14:56.044Z,3.13
2018-08-08T02:17:24.262Z,4.97
2018-08-08T02:19:52.542Z,4.53
2018-08-08T02:22:20.765Z,4.03
2018-08-08T02:24:49.000Z,5.40
2018-08-08T02:27:17.232Z,4.43
2018-08-08T02:29:45.455Z,8.33
2018-08-08T02:32:13.692Z,4.43
2018-08-08T02:34:41.893Z,4.63
2018-08-08T02:37:10.197Z,3.20
2018-08-08T02:39:38.374Z,4.13
2018-08-08T02:42:06.745Z,5.70
2018-08-08T02:44:34.977Z,3.17
2018-08-08T02:47:03.198Z,4.80
2018-08-08T02:49:31.410Z,4.77
2018-08-08T02:51:59.677Z,5.00
2018-08-08T02:54:27.883Z,4.17
2018-08-08T02:56:56.115Z,3.83
2018-08-08T02:59:24.404Z,5.20
2018-08-08T03:01:52.640Z,5.20
2018-08-08T03:04:20.853Z,6.17
2018-08-08T03:06:49.109Z,5.23
2018-08-08T03:09:17.533Z,5.27
2018-08-08T03:11:45.778Z,3.73
2018-08-08T03:14:13.996Z,4.63
2018-08-08T03:16:42.239Z,5.07
2018-08-08T03:19:10.437Z,5.30
2018-08-08T03:21:38.677Z,4.50
2018-08-08T03:24:08.236Z,3.47
2018-08-08T03:26:36.484Z,5.00
2018-08-08T03:29:04.716Z,4.17
2018-08-08T03:31:32.964Z,4.20
2018-08-08T03:34:01.183Z,5.67
2018-08-08T03:36:29.474Z,5.20
2018-08-08T03:38:57.652Z,6.43
2018-08-08T03:41:25.874Z,4.63
2018-08-08T03:43:54.140Z,3.83
2018-08-08T03:46:22.381Z,5.93
2018-08-08T03:48:50.596Z,5.10
2018-08-08T03:51:18.823Z,5.33
2018-08-08T03:53:47.037Z,3.97
2018-08-08T03:56:15.284Z,4.90
2018-08-08T03:58:43.501Z,3.33
2018-08-08T04:01:11.736Z,5.33
2018-08-08T04:03:39.936Z,4.20
2018-08-08T04:06:08.155Z,4.10
2018-08-08T04:08:36.358Z,4.50
2018-08-08T04:11:04.583Z,5.30
2018-08-08T04:13:32.803Z,4.93
2018-08-08T04:16:00.990Z,7.03
2018-08-08T04:18:29.213Z,4.40
2018-08-08T04:20:58.120Z,3.70
2018-08-08T04:23:26.411Z,5.23
2018-08-08T04:25:54.643Z,7.13
2018-08-08T04:28:22.894Z,5.70
2018-08-08T04:30:51.108Z,9.17
2018-08-08T04:33:19.344Z,5.77
2018-08-08T04:35:48.072Z,6.73
2018-08-08T04:38:16.313Z,7.03
2018-08-08T04:40:44.524Z,4.33
2018-08-08T04:43:13.329Z,4.20
2018-08-08T04:45:41.548Z,5.50
2018-08-08T04:48:09.781Z,8.53
2018-08-08T04:50:38.034Z,6.63
2018-08-08T04:53:06.281Z,5.67
2018-08-08T04:55:34.530Z,5.60
2018-08-08T04:58:02.752Z,5.37
2018-08-08T05:00:30.963Z,4.93
2018-08-08T05:02:59.193Z,4.43
2018-08-08T05:05:27.422Z,4.77
2018-08-08T05:07:55.675Z,7.07
2018-08-08T05:10:23.871Z,4.80
2018-08-08T05:12:52.116Z,8.23
2018-08-08T05:15:20.349Z,5.67
2018-08-08T05:17:49.503Z,8.63
2018-08-08T05:20:17.847Z,4.57
2018-08-08T05:22:47.280Z,3.83
2018-08-08T05:25:15.806Z,8.43
2018-08-08T05:27:44.140Z,4.70
2018-08-08T05:30:15.673Z,4.97
2018-08-08T05:32:43.913Z,7.07
2018-08-08T05:35:12.703Z,5.60
2018-08-08T05:37:41.053Z,8.47
2018-08-08T05:40:12.890Z,7.37
2018-08-08T05:42:41.144Z,9.00
2018-08-08T05:45:11.263Z,7.10
2018-08-08T05:47:39.509Z,6.77
2018-08-08T05:50:09.460Z,6.03
2018-08-08T05:52:37.691Z,5.67
2018-08-08T05:55:06.894Z,8.63
2018-08-08T05:57:35.541Z,6.60
2018-08-08T06:00:05.914Z,4.67
2018-08-08T06:02:34.157Z,6.47
2018-08-08T06:05:02.465Z,8.40
2018-08-08T06:07:30.670Z,7.93
2018-08-08T06:09:58.878Z,10.60
2018-08-08T06:12:27.136Z,6.67
2018-08-08T06:14:55.347Z,9.73
2018-08-08T06:17:23.612Z,6.40
2018-08-08T06:19:51.839Z,6.60
2018-08-08T06:22:20.093Z,4.60
2018-08-08T06:24:48.397Z,4.50
2018-08-08T06:27:16.984Z,4.90
2018-08-08T06:29:45.218Z,11.63
2018-08-08T06:32:13.433Z,5.93
2018-08-08T06:34:41.688Z,6.87
2018-08-08T06:37:09.908Z,5.80
2018-08-08T06:39:38.176Z,7.37
2018-08-08T06:42:06.534Z,6.13
2018-08-08T06:44:34.767Z,6.90
2018-08-08T06:47:02.975Z,6.87
2018-08-08T06:49:31.205Z,10.47
2018-08-08T06:51:59.413Z,6.15
2018-08-08T06:54:27.657Z,6.77
2018-08-08T06:56:55.881Z,8.03
2018-08-08T06:59:24.144Z,7.20
2018-08-08T07:01:52.361Z,8.10
2018-08-08T07:04:20.579Z,12.25
2018-08-08T07:06:48.772Z,7.80
2018-08-08T07:09:16.992Z,7.28
2018-08-08T07:11:45.217Z,7.28
2018-08-08T07:14:13.477Z,6.78
2018-08-08T07:16:41.732Z,8.33
2018-08-08T07:19:09.992Z,6.65
2018-08-08T07:21:38.217Z,14.65
2018-08-08T07:24:06.436Z,6.30
2018-08-08T07:26:34.668Z,7.83
2018-08-08T07:29:02.903Z,6.12
2018-08-08T07:31:31.129Z,5.62
2018-08-08T07:33:59.359Z,7.22
2018-08-08T07:36:27.620Z,8.38
2018-08-08T07:38:55.857Z,8.50
2018-08-08T07:41:24.055Z,5.53
2018-08-08T07:43:52.352Z,5.62
2018-08-08T07:46:20.597Z,7.37
2018-08-08T07:48:48.821Z,10.00
2018-08-08T07:51:17.076Z,7.33
2018-08-08T07:53:45.313Z,7.20
2018-08-08T07:56:13.528Z,5.42
2018-08-08T07:58:41.759Z,7.03
2018-08-08T08:01:09.978Z,6.10
2018-08-08T08:03:38.213Z,7.53
2018-08-08T08:06:06.449Z,5.62
2018-08-08T08:08:34.696Z,6.58
2018-08-08T08:11:02.899Z,9.78
2018-08-08T08:13:31.217Z,6.85
2018-08-08T08:15:59.449Z,15.10
2018-08-08T08:18:27.666Z,7.47
2018-08-08T08:20:55.904Z,7.80
2018-08-08T08:23:24.238Z,7.22
2018-08-08T08:25:52.472Z,7.03
2018-08-08T08:28:20.678Z,7.97
2018-08-08T08:30:48.886Z,7.80
2018-08-08T08:33:17.095Z,12.63
2018-08-08T08:35:45.336Z,9.53
2018-08-08T08:38:13.567Z,10.72
2018-08-08T08:40:41.805Z,8.88
2018-08-08T08:43:10.010Z,8.40
2018-08-08T08:45:38.254Z,9.88
2018-08-08T08:48:06.763Z,7.55
2018-08-08T08:50:34.987Z,6.78
2018-08-08T08:53:03.220Z,8.45
2018-08-08T08:55:31.445Z,5.70
2018-08-08T08:57:59.652Z,6.62
2018-08-08T09:00:27.875Z,6.83
2018-08-08T09:02:56.118Z,5.92
2018-08-08T09:05:24.352Z,6.90
2018-08-08T09:07:52.584Z,7.62
2018-08-08T09:10:20.837Z,5.62
2018-08-08T09:12:49.065Z,9.10
2018-08-08T09:15:17.299Z,6.37
2018-08-08T09:17:45.537Z,8.15
2018-08-08T09:20:13.795Z,6.05
2018-08-08T09:22:42.161Z,6.28
2018-08-08T09:25:10.383Z,7.42
2018-08-08T09:27:38.624Z,10.48
2018-08-08T09:30:10.288Z,5.47
2018-08-08T09:32:39.770Z,5.30
2018-08-08T09:35:08.272Z,8.33
2018-08-08T09:37:36.745Z,5.00
2018-08-08T09:40:05.443Z,7.53
2018-08-08T09:42:33.728Z,6.90
2018-08-08T09:45:02.034Z,6.42
2018-08-08T09:47:30.282Z,8.65
2018-08-08T09:49:58.510Z,7.40
2018-08-08T09:52:26.735Z,9.08
2018-08-08T09:54:54.975Z,5.50
2018-08-08T09:57:23.245Z,5.87
2018-08-08T09:59:51.462Z,6.10
2018-08-08T10:02:25.777Z,4.10
2018-08-08T10:04:53.984Z,4.62
2018-08-08T10:07:22.238Z,4.15
2018-08-08T10:09:50.454Z,5.70
2018-08-08T10:12:18.755Z,5.42
2018-08-08T10:14:46.938Z,6.47
2018-08-08T10:17:15.194Z,10.48
2018-08-08T10:19:43.427Z,5.10
2018-08-08T10:22:11.660Z,4.05
2018-08-08T10:24:39.880Z,6.58
2018-08-08T10:27:08.385Z,7.25
2018-08-08T10:29:36.588Z,5.30
2018-08-08T10:32:04.803Z,4.47
2018-08-08T10:34:33.062Z,7.12
2018-08-08T10:37:01.322Z,4.62
2018-08-08T10:39:29.543Z,4.62
2018-08-08T10:41:57.760Z,5.87
2018-08-08T10:44:25.993Z,5.92
2018-08-08T10:46:54.204Z,4.67
2018-08-08T10:49:22.448Z,7.15
2018-08-08T10:51:50.677Z,7.67
2018-08-08T10:54:18.943Z,6.10
2018-08-08T10:56:47.142Z,5.42
2018-08-08T10:59:15.363Z,4.03
2018-08-08T11:01:43.577Z,7.85
2018-08-08T11:04:11.837Z,9.10
2018-08-08T11:06:40.082Z,4.55
2018-08-08T11:09:09.177Z,4.15
2018-08-08T11:11:37.502Z,3.87
2018-08-08T11:14:05.775Z,5.22
2018-08-08T11:16:33.997Z,8.30
2018-08-08T11:19:02.239Z,10.28
2018-08-08T11:21:30.450Z,7.47
2018-08-08T11:23:58.738Z,5.70
2018-08-08T11:26:26.908Z,5.35
2018-08-08T11:28:55.156Z,5.90
2018-08-08T11:31:23.370Z,4.30
2018-08-08T11:33:51.601Z,6.87
2018-08-08T11:36:19.824Z,7.35
2018-08-08T11:38:48.085Z,5.58
2018-08-08T11:41:16.313Z,4.65
2018-08-08T11:43:44.619Z,4.55
2018-08-08T11:46:12.836Z,4.03
2018-08-08T11:48:41.091Z,6.42
2018-08-08T11:51:09.328Z,6.53
2018-08-08T11:53:37.544Z,7.62
2018-08-08T11:56:05.784Z,6.55
2018-08-08T11:58:34.009Z,4.03
2018-08-08T12:01:02.238Z,5.53
2018-08-08T12:03:30.514Z,5.62
2018-08-08T12:05:58.751Z,4.62
2018-08-08T12:08:27.004Z,10.25
2018-08-08T12:10:55.233Z,4.58
2018-08-08T12:13:23.481Z,4.17
2018-08-08T12:15:51.732Z,6.60
2018-08-08T12:18:19.945Z,10.40
2018-08-08T12:20:48.173Z,4.92
2018-08-08T12:23:16.693Z,9.33
2018-08-08T12:25:45.044Z,6.30
2018-08-08T12:28:13.185Z,5.40
2018-08-08T12:30:41.399Z,5.55
2018-08-08T12:33:09.613Z,7.35
2018-08-08T12:35:37.852Z,4.53
2018-08-08T12:38:06.218Z,4.00
2018-08-08T12:40:34.448Z,4.70
2018-08-08T12:43:02.682Z,4.50
2018-08-08T12:45:30.912Z,5.28
2018-08-08T12:47:59.152Z,4.30
2018-08-08T12:50:27.417Z,8.05
2018-08-08T12:52:55.649Z,4.00
2018-08-08T12:55:23.912Z,3.95
2018-08-08T12:57:52.133Z,4.28
2018-08-08T13:00:20.410Z,13.32
2018-08-08T13:02:48.624Z,11.68
2018-08-08T13:05:16.860Z,5.33
2018-08-08T13:07:45.069Z,7.92
2018-08-08T13:10:13.304Z,4.55
2018-08-08T13:12:41.536Z,8.18
2018-08-08T13:15:09.974Z,6.58
2018-08-08T13:17:38.286Z,6.85
2018-08-08T13:20:07.095Z,5.67
2018-08-08T13:22:35.317Z,5.60
2018-08-08T13:25:03.545Z,4.42
2018-08-08T13:27:31.812Z,3.80
2018-08-08T13:30:00.043Z,4.55
2018-08-08T13:32:28.404Z,3.83
2018-08-08T13:34:56.611Z,5.20
2018-08-08T13:37:24.856Z,5.70
2018-08-08T13:39:53.087Z,5.05
2018-08-08T13:42:21.449Z,8.18
2018-08-08T13:44:49.657Z,5.50
2018-08-08T13:47:17.888Z,5.60
2018-08-08T13:49:46.097Z,5.65
2018-08-08T13:52:14.330Z,5.08
2018-08-08T13:54:42.546Z,5.28
2018-08-08T13:57:10.781Z,6.78
2018-08-08T13:59:38.989Z,7.75
2018-08-08T14:02:07.224Z,8.25
2018-08-08T14:04:35.427Z,9.00
2018-08-08T14:07:03.650Z,9.23
2018-08-08T14:09:31.876Z,5.50
2018-08-08T14:12:00.124Z,4.92
2018-08-08T14:14:28.373Z,8.03
2018-08-08T14:16:56.640Z,6.40
2018-08-08T14:19:24.857Z,6.78
2018-08-08T14:21:53.079Z,4.15
2018-08-08T14:24:21.287Z,4.25
2018-08-08T14:26:49.576Z,6.15
2018-08-08T14:29:17.780Z,15.30
2018-08-08T14:31:46.012Z,10.00
2018-08-08T14:34:14.235Z,6.87
2018-08-08T14:36:42.446Z,7.60
2018-08-08T14:39:11.837Z,5.78
2018-08-08T14:41:40.716Z,4.60
2018-08-08T14:44:09.667Z,9.63
2018-08-08T14:46:38.300Z,5.83
2018-08-08T14:49:06.529Z,7.70
2018-08-08T14:51:34.781Z,6.10
2018-08-08T14:54:03.015Z,3.67
2018-08-08T14:56:31.281Z,3.50
2018-08-08T14:58:59.489Z,5.45
2018-08-08T15:01:27.789Z,4.03
2018-08-08T15:03:55.991Z,6.58
2018-08-08T15:06:24.222Z,4.25
2018-08-08T15:08:52.457Z,6.33
2018-08-08T15:11:20.705Z,3.70
2018-08-08T15:13:48.981Z,6.42
2018-08-08T15:16:17.204Z,5.17
2018-08-08T15:18:45.428Z,5.10
2018-08-08T15:21:13.656Z,3.40
2018-08-08T15:23:41.874Z,4.28
2018-08-08T15:26:10.115Z,3.27
2018-08-08T15:28:38.656Z,5.58
2018-08-08T15:31:07.363Z,6.87
2018-08-08T15:33:35.591Z,4.85
2018-08-08T15:36:03.824Z,4.17
2018-08-08T15:38:32.060Z,7.22
2018-08-08T15:41:00.251Z,4.53
2018-08-08T15:43:28.504Z,4.80
2018-08-08T15:45:56.724Z,4.55
2018-08-08T15:48:24.989Z,6.60
2018-08-08T15:50:53.227Z,7.67
2018-08-08T15:53:21.460Z,4.33
2018-08-08T15:55:49.688Z,7.70
2018-08-08T15:58:17.949Z,7.05
2018-08-08T16:00:46.160Z,8.18
2018-08-08T16:03:14.389Z,4.90
2018-08-08T16:05:43.416Z,8.50
2018-08-08T16:08:12.576Z,7.10
2018-08-08T16:10:40.906Z,11.53
2018-08-08T16:13:09.196Z,7.85
2018-08-08T16:15:37.411Z,10.13
2018-08-08T16:18:06.354Z,10.28
2018-08-08T16:20:34.570Z,10.20
2018-08-08T16:23:02.816Z,8.30
2018-08-08T16:25:31.040Z,11.97
2018-08-08T16:27:59.297Z,13.55
2018-08-08T16:30:27.708Z,13.38
2018-08-08T16:32:56.078Z,10.88
2018-08-08T16:35:24.293Z,7.75
2018-08-08T16:37:52.532Z,11.83
2018-08-08T16:40:20.754Z,8.05
2018-08-08T16:42:48.986Z,11.45
2018-08-08T16:45:17.198Z,9.15
2018-08-08T16:47:45.417Z,7.35
2018-08-08T16:50:13.645Z,10.70
2018-08-08T16:52:41.883Z,6.20
2018-08-08T16:55:10.669Z,6.53
2018-08-08T16:57:39.105Z,9.93
2018-08-08T17:00:09.957Z,7.65
2018-08-08T17:02:38.191Z,5.95
2018-08-08T17:05:06.923Z,8.28
2018-08-08T17:07:35.527Z,9.55
2018-08-08T17:10:04.681Z,8.18
2018-08-08T17:12:32.925Z,9.33
2018-08-08T17:15:01.133Z,6.70
2018-08-08T17:17:29.375Z,7.10
2018-08-08T17:19:57.693Z,9.15
2018-08-08T17:22:25.932Z,6.87
2018-08-08T17:24:54.185Z,7.78
2018-08-08T17:27:22.404Z,8.30
2018-08-08T17:29:50.622Z,8.98
2018-08-08T17:32:18.985Z,8.50
2018-08-08T17:34:47.226Z,8.43
2018-08-08T17:37:15.458Z,7.60
2018-08-08T17:39:43.674Z,9.13
2018-08-08T17:42:11.972Z,6.53
2018-08-08T17:44:40.232Z,9.43
2018-08-08T17:47:08.449Z,5.92
2018-08-08T17:49:36.677Z,7.20
2018-08-08T17:52:04.889Z,7.47
2018-08-08T17:54:33.145Z,14.75
2018-08-08T17:57:01.344Z,9.58
2018-08-08T17:59:29.580Z,6.40
2018-08-08T18:01:57.813Z,6.72
2018-08-08T18:04:26.060Z,9.23
2018-08-08T18:06:54.292Z,17.00
2018-08-08T18:09:22.520Z,8.63
2018-08-08T18:11:50.768Z,13.62
2018-08-08T18:14:19.002Z,10.40
2018-08-08T18:16:47.198Z,9.80
2018-08-08T18:19:15.450Z,11.95
2018-08-08T18:21:43.665Z,10.70
2018-08-08T18:24:11.900Z,9.10
2018-08-08T18:26:40.189Z,10.32
2018-08-08T18:29:08.420Z,9.53
2018-08-08T18:31:36.801Z,13.48
2018-08-08T18:34:07.320Z,10.45
2018-08-08T18:36:35.648Z,9.68
2018-08-08T18:39:05.497Z,8.90
2018-08-08T18:41:33.709Z,9.45
2018-08-08T18:44:01.959Z,9.13
2018-08-08T18:46:30.166Z,9.55
2018-08-08T18:48:58.427Z,12.35
2018-08-08T18:51:26.645Z,11.38
2018-08-08T18:53:54.868Z,11.55
2018-08-08T18:56:23.075Z,12.68
2018-08-08T18:58:51.349Z,11.50
2018-08-08T19:01:19.556Z,10.38
2018-08-08T19:03:47.803Z,11.18
2018-08-08T19:06:16.018Z,10.35
2018-08-08T19:08:44.255Z,10.80
2018-08-08T19:11:12.458Z,14.40
2018-08-08T19:13:40.740Z,11.50
2018-08-08T19:16:08.973Z,10.45
2018-08-08T19:18:37.245Z,13.00
2018-08-08T19:21:05.479Z,10.03
2018-08-08T19:23:33.732Z,11.87
2018-08-08T19:26:01.957Z,11.95
2018-08-08T19:28:30.189Z,10.25
2018-08-08T19:30:58.423Z,11.38
2018-08-08T19:33:26.646Z,9.95
2018-08-08T19:35:54.913Z,11.00
2018-08-08T19:38:23.145Z,11.65
2018-08-08T19:40:51.384Z,11.75
2018-08-08T19:43:19.858Z,11.40
2018-08-08T19:45:47.996Z,9.93
2018-08-08T19:48:16.233Z,18.57
2018-08-08T19:50:53.262Z,10.30
2018-08-08T19:53:22.300Z,16.53
2018-08-08T19:55:50.556Z,10.82
2018-08-08T19:58:18.771Z,12.55
2018-08-08T20:00:48.504Z,11.93
2018-08-08T20:03:16.928Z,13.30
2018-08-08T20:05:45.576Z,11.37
2018-08-08T20:08:18.024Z,12.63
2018-08-08T20:10:46.273Z,14.18
2018-08-08T20:13:14.530Z,14.00
2018-08-08T20:15:42.754Z,13.57
2018-08-08T20:18:10.961Z,13.73
2018-08-08T20:20:39.225Z,13.58
2018-08-08T20:23:07.463Z,14.17
2018-08-08T20:25:35.683Z,12.77
2018-08-08T20:28:03.925Z,12.53
2018-08-08T20:30:32.180Z,13.53
2018-08-08T20:33:00.388Z,13.55
2018-08-08T20:35:28.611Z,14.57
2018-08-08T20:37:56.857Z,15.20
2018-08-08T20:40:25.079Z,10.90
2018-08-08T20:42:53.284Z,11.73
2018-08-08T20:45:21.512Z,10.67
2018-08-08T20:47:49.731Z,14.83
2018-08-08T20:50:18.137Z,13.37
2018-08-08T20:52:46.377Z,13.17
2018-08-08T20:55:14.639Z,14.23
2018-08-08T20:57:42.895Z,11.40
2018-08-08T21:00:11.173Z,12.20
2018-08-08T21:02:39.453Z,15.47
2018-08-08T21:05:07.712Z,14.07
2018-08-08T21:07:36.216Z,11.23
2018-08-08T21:10:05.424Z,14.33
2018-08-08T21:12:33.691Z,13.03
2018-08-08T21:15:02.140Z,14.27
2018-08-08T21:17:30.383Z,11.80
2018-08-08T21:19:58.606Z,12.47
2018-08-08T21:22:26.883Z,13.97
2018-08-08T21:24:55.157Z,17.43
2018-08-08T21:27:23.404Z,12.40
2018-08-08T21:29:51.636Z,13.97
2018-08-08T21:32:19.913Z,13.03
2018-08-08T21:34:48.164Z,13.00
2018-08-08T21:37:16.428Z,13.67
2018-08-08T21:39:44.634Z,12.60
2018-08-08T21:42:12.879Z,12.17
2018-08-08T21:44:41.125Z,11.60
2018-08-08T21:47:09.432Z,11.53
2018-08-08T21:49:37.656Z,12.90
2018-08-08T21:52:06.846Z,18.23
2018-08-08T21:54:46.370Z,16.70
2018-08-08T21:57:25.898Z,13.33
2018-08-08T22:00:05.421Z,17.00
2018-08-08T22:02:44.960Z,12.20
2018-08-08T22:05:24.436Z,12.60
2018-08-08T22:08:04.033Z,12.17
2018-08-08T22:10:43.694Z,14.13
2018-08-08T22:13:24.098Z,16.03
2018-08-08T22:16:03.735Z,11.77
2018-08-08T22:18:43.288Z,13.93
2018-08-08T22:21:11.519Z,13.03
2018-08-08T22:23:39.742Z,11.30
2018-08-08T22:26:08.009Z,13.33
2018-08-08T22:28:36.252Z,13.93
2018-08-08T22:31:04.487Z,14.67
2018-08-08T22:33:32.736Z,14.00
2018-08-08T22:36:00.953Z,14.80
2018-08-08T22:38:29.208Z,18.80
2018-08-08T22:40:57.448Z,11.87
2018-08-08T22:43:25.681Z,14.47
2018-08-08T22:45:53.902Z,12.83
2018-08-08T22:48:23.141Z,13.13
2018-08-08T22:50:51.363Z,14.13
2018-08-08T22:53:20.957Z,13.53
2018-08-08T22:55:49.318Z,15.73
2018-08-08T22:58:17.548Z,13.37
2018-08-08T23:00:45.802Z,14.57
2018-08-08T23:03:14.124Z,16.20
2018-08-08T23:05:42.354Z,13.50
2018-08-08T23:08:10.583Z,15.27
2018-08-08T23:10:38.821Z,14.90
2018-08-08T23:13:07.065Z,12.53
2018-08-08T23:15:35.295Z,13.17
2018-08-08T23:18:03.560Z,17.23
2018-08-08T23:20:31.789Z,12.97
2018-08-08T23:23:00.057Z,17.43
2018-08-08T23:25:28.258Z,16.37
2018-08-08T23:27:56.524Z,13.30
2018-08-08T23:30:24.741Z,16.30
2018-08-08T23:32:52.987Z,11.67
2018-08-08T23:35:21.203Z,13.33
2018-08-08T23:37:49.466Z,15.60
2018-08-08T23:40:17.692Z,12.93
2018-08-08T23:42:45.920Z,13.83
2018-08-08T23:45:14.132Z,12.37
2018-08-08T23:47:42.368Z,13.47
2018-08-08T23:50:10.589Z,14.00
2018-08-08T23:52:38.832Z,13.37
2018-08-08T23:55:07.059Z,13.70
2018-08-08T23:57:35.296Z,12.70
